Time;durP1;ratioP1;P1;durP2;ratioP2;P2;SDS_P1;SDS_P2;PMS_P1;PMS_P2;Temp;Humidity;BMP_temperature;BMP_pressure;BME280_temperature;BME280_humidity;BME280_pressure;Samples;Min_cycle;Max_cycle;Signal;HPM_P1;HPM_P2
2023/12/05 00:01:53;;;;;;;23.63;16.08;;;;;;;;;;10323197;28;20087;-66
2023/12/05 00:06:53;;;;;;;27.33;18.98;;;;;;;;;;10327211;28;20072;-66
2023/12/05 00:11:51;;;;;;;18.73;13.25;;;;;;;;;;10326120;28;20075;-66
2023/12/05 00:16:50;;;;;;;15.32;11.18;;;;;;;;;;10326190;28;20513;-66
2023/12/05 00:21:48;;;;;;;15.43;12.40;;;;;;;;;;10325938;28;20078;-66
2023/12/05 00:26:48;;;;;;;16.73;12.63;;;;;;;;;;10327719;28;20075;-66
2023/12/05 00:31:46;;;;;;;14.80;11.23;;;;;;;;;;10325253;28;20086;-67
2023/12/05 00:36:44;;;;;;;15.77;11.48;;;;;;;;;;10325371;28;20512;-67
2023/12/05 00:41:42;;;;;;;18.67;14.73;;;;;;;;;;10308000;28;20071;-66
2023/12/05 00:46:42;;;;;;;22.40;15.82;;;;;;;;;;10325692;28;20075;-65
2023/12/05 00:51:41;;;;;;;17.27;13.63;;;;;;;;;;10321726;28;20068;-65
2023/12/05 00:56:39;;;;;;;15.55;12.48;;;;;;;;;;10307795;28;20079;-66
2023/12/05 01:01:37;;;;;;;16.27;13.85;;;;;;;;;;10325522;28;20081;-67
2023/12/05 01:06:37;;;;;;;15.57;12.50;;;;;;;;;;10326056;28;20072;-66
2023/12/05 01:11:35;;;;;;;14.55;12.65;;;;;;;;;;10329535;28;20071;-66
2023/12/05 01:16:33;;;;;;;15.88;13.82;;;;;;;;;;10333209;28;20508;-66
2023/12/05 01:21:31;;;;;;;12.05;10.77;;;;;;;;;;10332815;28;20532;-66
2023/12/05 01:26:31;;;;;;;13.40;12.00;;;;;;;;;;10320830;28;20102;-67
2023/12/05 01:31:29;;;;;;;12.75;10.98;;;;;;;;;;10332269;28;20072;-67
2023/12/05 01:36:27;;;;;;;15.23;11.25;;;;;;;;;;10333648;28;20070;-66
2023/12/05 01:41:26;;;;;;;13.15;10.65;;;;;;;;;;10332350;28;20701;-66
2023/12/05 01:46:26;;;;;;;12.48;11.20;;;;;;;;;;10328570;28;20088;-66
2023/12/05 01:51:24;;;;;;;15.18;12.70;;;;;;;;;;10332085;28;20121;-66
2023/12/05 01:56:23;;;;;;;14.43;11.73;;;;;;;;;;10332100;28;20081;-66
2023/12/05 02:01:21;;;;;;;14.02;11.45;;;;;;;;;;10330278;28;20083;-66
2023/12/05 02:06:21;;;;;;;12.02;10.18;;;;;;;;;;10332269;28;20079;-66
2023/12/05 02:11:19;;;;;;;13.30;10.38;;;;;;;;;;10313031;28;20068;-67
2023/12/05 02:16:21;;;;;;;10.30;9.20;;;;;;;;;;10330780;28;20075;-66
2023/12/05 02:21:25;;;;;;;9.98;8.75;;;;;;;;;;10329010;28;20098;-66
2023/12/05 02:26:28;;;;;;;11.48;9.55;;;;;;;;;;10329937;28;20083;-67
2023/12/05 02:31:28;;;;;;;12.88;10.07;;;;;;;;;;10330627;28;20078;-66
2023/12/05 02:36:29;;;;;;;12.52;10.73;;;;;;;;;;10314829;28;20532;-67
2023/12/05 02:41:30;;;;;;;13.13;9.93;;;;;;;;;;10331151;28;20090;-67
2023/12/05 02:46:29;;;;;;;13.18;10.77;;;;;;;;;;10322424;28;20521;-67
2023/12/05 02:51:28;;;;;;;14.40;11.48;;;;;;;;;;10328808;28;20098;-67
2023/12/05 02:56:26;;;;;;;17.83;12.00;;;;;;;;;;10327892;28;20158;-66
2023/12/05 03:01:28;;;;;;;15.05;12.68;;;;;;;;;;10329103;28;20075;-66
2023/12/05 03:06:28;;;;;;;14.30;12.18;;;;;;;;;;10330067;28;20080;-66
2023/12/05 03:11:26;;;;;;;14.48;11.00;;;;;;;;;;10318386;28;20493;-66
2023/12/05 03:16:24;;;;;;;12.60;10.50;;;;;;;;;;10327682;28;20072;-66
2023/12/05 03:21:23;;;;;;;15.07;12.50;;;;;;;;;;10325423;28;20523;-66
2023/12/05 03:26:23;;;;;;;13.80;11.13;;;;;;;;;;10327466;28;20076;-67
2023/12/05 03:31:21;;;;;;;15.57;10.57;;;;;;;;;;10326890;28;20064;-67
2023/12/05 03:36:20;;;;;;;11.60;10.07;;;;;;;;;;10326966;28;20477;-66
2023/12/05 03:41:18;;;;;;;13.95;11.57;;;;;;;;;;10327585;28;20082;-67
2023/12/05 03:46:17;;;;;;;13.80;11.73;;;;;;;;;;10327599;28;20075;-67
2023/12/05 03:51:16;;;;;;;13.80;10.32;;;;;;;;;;10307866;28;20076;-67
2023/12/05 03:56:14;;;;;;;12.35;11.05;;;;;;;;;;10327234;28;20072;-67
2023/12/05 04:01:12;;;;;;;13.70;11.13;;;;;;;;;;10308517;28;20111;-67
2023/12/05 04:06:21;;;;;;;14.35;11.95;;;;;;;;;;10327645;28;20513;-67
2023/12/05 04:11:29;;;;;;;15.13;12.40;;;;;;;;;;10327727;28;20083;-67
2023/12/05 04:16:27;;;;;;;16.15;12.80;;;;;;;;;;10324313;28;20044;-67
2023/12/05 04:21:27;;;;;;;15.23;12.10;;;;;;;;;;10325013;28;20071;-67
2023/12/05 04:26:25;;;;;;;16.13;14.38;;;;;;;;;;10326258;28;20072;-67
2023/12/05 04:31:27;;;;;;;14.73;13.23;;;;;;;;;;10326046;28;20452;-67
2023/12/05 04:36:26;;;;;;;15.13;13.05;;;;;;;;;;10325380;28;20068;-66
2023/12/05 04:41:25;;;;;;;16.52;13.88;;;;;;;;;;10326063;28;20056;-66
2023/12/05 04:46:23;;;;;;;15.70;12.90;;;;;;;;;;10325572;28;20535;-65
2023/12/05 04:51:21;;;;;;;18.98;13.52;;;;;;;;;;10335210;28;20075;-67
2023/12/05 04:56:21;;;;;;;16.60;12.75;;;;;;;;;;10332109;28;20064;-66
2023/12/05 05:01:19;;;;;;;18.45;14.50;;;;;;;;;;10336123;28;20079;-66
2023/12/05 05:06:17;;;;;;;20.02;13.77;;;;;;;;;;10332045;28;20076;-67
2023/12/05 05:11:15;;;;;;;19.85;13.77;;;;;;;;;;10333455;28;20505;-66
2023/12/05 05:16:15;;;;;;;19.02;14.80;;;;;;;;;;10328324;28;20665;-66
2023/12/05 05:21:14;;;;;;;20.50;15.15;;;;;;;;;;10301066;28;20147;-65
2023/12/05 05:26:13;;;;;;;19.40;16.55;;;;;;;;;;10302079;28;20044;-66
2023/12/05 05:31:12;;;;;;;22.95;15.30;;;;;;;;;;10307667;28;20628;-67
2023/12/05 05:36:13;;;;;;;19.65;14.60;;;;;;;;;;10325500;28;20074;-67
2023/12/05 05:41:11;;;;;;;30.10;16.60;;;;;;;;;;10333927;28;20076;-66
2023/12/05 05:46:10;;;;;;;21.80;15.85;;;;;;;;;;10331253;28;20525;-66
2023/12/05 05:51:08;;;;;;;26.27;14.75;;;;;;;;;;10329014;28;20094;-66
2023/12/05 05:56:09;;;;;;;21.40;15.90;;;;;;;;;;10330537;28;20071;-67
2023/12/05 06:01:07;;;;;;;25.10;18.02;;;;;;;;;;10325142;28;20091;-67
2023/12/05 06:06:06;;;;;;;18.42;15.82;;;;;;;;;;10294159;28;20046;-67
2023/12/05 06:11:05;;;;;;;20.20;15.35;;;;;;;;;;10308285;28;20588;-66
2023/12/05 06:16:05;;;;;;;25.35;17.83;;;;;;;;;;10297263;28;20050;-66
2023/12/05 06:21:04;;;;;;;23.20;18.30;;;;;;;;;;10278222;28;20838;-66
2023/12/05 06:26:03;;;;;;;19.35;16.45;;;;;;;;;;10294295;28;20044;-66
2023/12/05 06:31:01;;;;;;;26.52;15.15;;;;;;;;;;10295851;28;20565;-66
2023/12/05 06:36:01;;;;;;;22.20;18.60;;;;;;;;;;10277214;28;20138;-68
2023/12/05 06:40:59;;;;;;;32.25;22.67;;;;;;;;;;10275298;28;20595;-65
2023/12/05 06:45:57;;;;;;;34.55;23.23;;;;;;;;;;10294033;28;20526;-66
2023/12/05 06:50:56;;;;;;;26.90;19.08;;;;;;;;;;10306019;28;20111;-67
2023/12/05 06:55:55;;;;;;;23.23;17.13;;;;;;;;;;10331623;28;20076;-66
2023/12/05 07:00:53;;;;;;;33.63;25.77;;;;;;;;;;10315858;28;20119;-66
2023/12/05 07:05:53;;;;;;;24.33;17.70;;;;;;;;;;10331788;28;20068;-67
2023/12/05 07:10:52;;;;;;;30.10;20.73;;;;;;;;;;10333252;28;20071;-67
2023/12/05 07:15:51;;;;;;;20.73;16.13;;;;;;;;;;10291645;28;20043;-67
2023/12/05 07:20:50;;;;;;;16.63;14.02;;;;;;;;;;10291162;28;20139;-67
2023/12/05 07:25:49;;;;;;;21.38;17.05;;;;;;;;;;10315062;28;20147;-66
2023/12/05 07:30:47;;;;;;;41.25;23.60;;;;;;;;;;10309135;28;20127;-67
2023/12/05 07:35:47;;;;;;;28.65;18.75;;;;;;;;;;10314566;28;20135;-68
2023/12/05 07:40:45;;;;;;;22.95;16.98;;;;;;;;;;10302602;28;20071;-67
2023/12/05 07:45:43;;;;;;;24.10;17.90;;;;;;;;;;10316077;28;20135;-67
2023/12/05 07:50:42;;;;;;;29.13;19.02;;;;;;;;;;10309637;28;20095;-67
2023/12/05 07:55:42;;;;;;;23.17;18.67;;;;;;;;;;10326892;28;20106;-68
2023/12/05 08:00:40;;;;;;;39.70;31.25;;;;;;;;;;10328571;28;20079;-67
2023/12/05 08:05:38;;;;;;;52.85;45.78;;;;;;;;;;10324634;28;20078;-67
2023/12/05 08:10:36;;;;;;;56.97;50.85;;;;;;;;;;10324571;28;20068;-68
2023/12/05 08:15:36;;;;;;;50.50;43.53;;;;;;;;;;10327125;28;20071;-67
2023/12/05 08:20:34;;;;;;;52.28;43.42;;;;;;;;;;10326655;28;20056;-67
2023/12/05 08:25:33;;;;;;;42.60;38.15;;;;;;;;;;10321015;28;20037;-67
2023/12/05 08:30:31;;;;;;;44.90;39.45;;;;;;;;;;10325448;28;20065;-67
2023/12/05 08:35:31;;;;;;;42.55;34.85;;;;;;;;;;10327540;28;20079;-67
2023/12/05 08:40:29;;;;;;;78.25;39.75;;;;;;;;;;10325765;28;20084;-67
2023/12/05 08:45:28;;;;;;;37.80;27.50;;;;;;;;;;10328392;28;20072;-67
2023/12/05 08:50:26;;;;;;;38.13;29.05;;;;;;;;;;10326487;28;20079;-67
2023/12/05 08:55:27;;;;;;;43.28;32.83;;;;;;;;;;10327288;28;20064;-67
2023/12/05 09:00:25;;;;;;;25.30;21.05;;;;;;;;;;10317361;28;20084;-67
2023/12/05 09:05:23;;;;;;;32.22;22.52;;;;;;;;;;10326575;28;20072;-67
2023/12/05 09:10:22;;;;;;;24.17;19.58;;;;;;;;;;10327858;28;20075;-68
2023/12/05 09:15:21;;;;;;;26.77;21.55;;;;;;;;;;10323607;28;20074;-66
2023/12/05 09:20:20;;;;;;;24.23;19.88;;;;;;;;;;10327632;28;20076;-67
2023/12/05 09:25:19;;;;;;;26.02;21.25;;;;;;;;;;10326500;28;20078;-67
2023/12/05 09:30:18;;;;;;;27.30;21.80;;;;;;;;;;10324852;28;20107;-67
2023/12/05 09:35:17;;;;;;;27.95;21.55;;;;;;;;;;10332832;28;20091;-67
2023/12/05 09:40:16;;;;;;;31.08;22.52;;;;;;;;;;10328111;28;20079;-67
2023/12/05 09:45:16;;;;;;;32.03;24.42;;;;;;;;;;10332681;28;20067;-68
2023/12/05 09:50:15;;;;;;;59.08;44.38;;;;;;;;;;10333635;28;20083;-67
2023/12/05 09:55:15;;;;;;;30.10;22.35;;;;;;;;;;10332711;28;20068;-68
2023/12/05 10:00:14;;;;;;;32.67;22.85;;;;;;;;;;10331168;28;20076;-67
2023/12/05 10:05:15;;;;;;;35.20;25.90;;;;;;;;;;10331149;28;20474;-66
2023/12/05 10:10:14;;;;;;;37.10;26.58;;;;;;;;;;10332112;28;20500;-68
2023/12/05 10:15:13;;;;;;;41.08;28.55;;;;;;;;;;10331325;28;20079;-67
2023/12/05 10:20:12;;;;;;;54.65;34.05;;;;;;;;;;10329389;28;20521;-67
2023/12/05 10:25:11;;;;;;;29.95;23.23;;;;;;;;;;10326441;28;20559;-67
2023/12/05 10:30:11;;;;;;;31.17;24.05;;;;;;;;;;10332043;28;20083;-66
2023/12/05 10:35:12;;;;;;;35.47;26.27;;;;;;;;;;10329995;28;20075;-67
2023/12/05 10:40:12;;;;;;;34.63;26.27;;;;;;;;;;10330359;28;20076;-67
2023/12/05 10:45:12;;;;;;;33.60;27.80;;;;;;;;;;10332460;28;20065;-68
2023/12/05 10:50:11;;;;;;;25.77;21.35;;;;;;;;;;10326951;28;20513;-68
2023/12/05 10:55:12;;;;;;;30.73;21.70;;;;;;;;;;10329211;28;20071;-67
2023/12/05 11:00:12;;;;;;;30.55;21.65;;;;;;;;;;10330473;28;20493;-68
2023/12/05 11:05:13;;;;;;;34.08;27.27;;;;;;;;;;10329542;28;20549;-67
2023/12/05 11:10:11;;;;;;;29.83;23.48;;;;;;;;;;10327718;28;20110;-68
2023/12/05 11:15:10;;;;;;;32.88;22.77;;;;;;;;;;10331120;28;20099;-67
2023/12/05 11:20:18;;;;;;;27.23;22.52;;;;;;;;;;10312849;28;20504;-67
2023/12/05 11:25:24;;;;;;;26.35;20.60;;;;;;;;;;10330010;28;20078;-67
2023/12/05 11:30:32;;;;;;;40.75;29.90;;;;;;;;;;10328658;28;20072;-67
2023/12/05 11:35:37;;;;;;;34.97;23.17;;;;;;;;;;10327396;28;20158;-68
2023/12/05 11:40:36;;;;;;;28.88;22.13;;;;;;;;;;10327890;28;20537;-67
2023/12/05 11:45:37;;;;;;;26.95;23.38;;;;;;;;;;10329762;28;20068;-67
2023/12/05 11:50:43;;;;;;;33.80;27.30;;;;;;;;;;10326470;28;20071;-67
2023/12/05 11:55:42;;;;;;;37.65;26.38;;;;;;;;;;10327148;28;20111;-67
2023/12/05 12:00:40;;;;;;;27.48;22.10;;;;;;;;;;10327993;28;20063;-68
2023/12/05 12:05:39;;;;;;;25.17;20.58;;;;;;;;;;10327667;28;20072;-67
2023/12/05 12:10:39;;;;;;;22.83;19.90;;;;;;;;;;10328921;28;20080;-67
2023/12/05 12:15:37;;;;;;;29.30;21.95;;;;;;;;;;10327411;28;20087;-66
2023/12/05 12:20:36;;;;;;;24.83;18.83;;;;;;;;;;10326507;28;20072;-67
2023/12/05 12:25:34;;;;;;;27.45;24.45;;;;;;;;;;10326064;28;20068;-68
2023/12/05 12:30:36;;;;;;;47.65;32.55;;;;;;;;;;10327500;28;20079;-67
2023/12/05 12:35:35;;;;;;;25.45;21.10;;;;;;;;;;10328016;28;20104;-67
2023/12/05 12:40:34;;;;;;;29.83;24.88;;;;;;;;;;10327170;28;20088;-67
2023/12/05 12:45:34;;;;;;;30.13;21.63;;;;;;;;;;10325679;28;20088;-67
2023/12/05 12:50:33;;;;;;;30.52;23.27;;;;;;;;;;10325636;28;20091;-67
2023/12/05 12:55:33;;;;;;;29.58;23.63;;;;;;;;;;10306415;28;20510;-67
2023/12/05 13:00:34;;;;;;;28.30;22.60;;;;;;;;;;10325926;28;20060;-67
2023/12/05 13:05:37;;;;;;;34.55;22.90;;;;;;;;;;10328373;28;20071;-67
2023/12/05 13:10:36;;;;;;;30.77;22.27;;;;;;;;;;10336075;28;20083;-67
2023/12/05 13:15:36;;;;;;;25.13;20.90;;;;;;;;;;10334249;28;20082;-66
2023/12/05 13:20:51;;;;;;;28.40;22.15;;;;;;;;;;10334030;28;20454;-66
2023/12/05 13:25:50;;;;;;;32.77;24.57;;;;;;;;;;10328587;28;20373;-66
2023/12/05 13:30:48;;;;;;;34.30;25.98;;;;;;;;;;10334658;28;20068;-67
2023/12/05 13:35:46;;;;;;;33.67;24.58;;;;;;;;;;10331673;28;20083;-67
2023/12/05 13:40:46;;;;;;;29.42;22.73;;;;;;;;;;10332648;28;20079;-67
2023/12/05 13:45:44;;;;;;;27.45;21.83;;;;;;;;;;10334039;28;20068;-67
2023/12/05 13:50:42;;;;;;;44.70;31.38;;;;;;;;;;10324255;28;20071;-67
2023/12/05 13:55:41;;;;;;;36.05;25.95;;;;;;;;;;10333631;28;20079;-67
2023/12/05 14:00:41;;;;;;;29.88;22.85;;;;;;;;;;10332161;28;20090;-67
2023/12/05 14:05:40;;;;;;;28.38;24.58;;;;;;;;;;10331253;28;20079;-66
2023/12/05 14:10:39;;;;;;;25.83;21.85;;;;;;;;;;10333811;28;20650;-66
2023/12/05 14:15:37;;;;;;;32.85;26.85;;;;;;;;;;10333890;28;20083;-66
2023/12/05 14:20:37;;;;;;;39.70;35.40;;;;;;;;;;10328445;28;20075;-67
2023/12/05 14:25:35;;;;;;;45.78;35.70;;;;;;;;;;10332160;28;20060;-67
2023/12/05 14:30:33;;;;;;;39.45;27.27;;;;;;;;;;10309224;28;20075;-67
2023/12/05 14:35:32;;;;;;;39.72;32.17;;;;;;;;;;10333645;28;20095;-67
2023/12/05 14:40:31;;;;;;;36.40;32.67;;;;;;;;;;10330817;28;20091;-67
2023/12/05 14:45:30;;;;;;;57.80;43.97;;;;;;;;;;10331359;28;20869;-67
2023/12/05 14:50:28;;;;;;;50.03;38.42;;;;;;;;;;10316425;28;20084;-68
2023/12/05 14:55:26;;;;;;;41.15;34.17;;;;;;;;;;10328086;28;20079;-68
2023/12/05 15:00:27;;;;;;;28.65;24.85;;;;;;;;;;10317018;28;20528;-67
2023/12/05 15:05:25;;;;;;;31.08;26.17;;;;;;;;;;10330631;28;20701;-67
2023/12/05 15:10:23;;;;;;;41.05;34.17;;;;;;;;;;10315531;28;20068;-67
2023/12/05 15:15:22;;;;;;;38.50;31.75;;;;;;;;;;10328874;28;20083;-66
2023/12/05 15:20:24;;;;;;;32.67;28.67;;;;;;;;;;10316577;28;20074;-67
2023/12/05 15:25:23;;;;;;;31.58;27.27;;;;;;;;;;10299210;28;20118;-68
2023/12/05 15:30:21;;;;;;;35.30;27.75;;;;;;;;;;10313231;28;20072;-67
2023/12/05 15:35:21;;;;;;;37.97;32.28;;;;;;;;;;10313355;28;20509;-67
2023/12/05 15:40:21;;;;;;;34.42;28.83;;;;;;;;;;10320890;28;20071;-66
2023/12/05 15:45:20;;;;;;;37.50;30.05;;;;;;;;;;10298790;28;20485;-67
2023/12/05 15:50:19;;;;;;;34.03;26.80;;;;;;;;;;10280510;28;20170;-67
2023/12/05 15:55:17;;;;;;;31.27;26.15;;;;;;;;;;10288484;28;20135;-66
2023/12/05 16:00:18;;;;;;;38.13;31.95;;;;;;;;;;10269664;28;20143;-65
2023/12/05 16:05:16;;;;;;;44.30;30.50;;;;;;;;;;10287760;28;20071;-66
2023/12/05 16:10:16;;;;;;;57.88;46.80;;;;;;;;;;10257661;28;20052;-67
2023/12/05 16:15:14;;;;;;;53.63;44.20;;;;;;;;;;10303455;28;20075;-67
2023/12/05 16:20:14;;;;;;;51.55;40.30;;;;;;;;;;10290523;28;20553;-67
2023/12/05 16:25:12;;;;;;;59.25;44.75;;;;;;;;;;10287034;28;20044;-67
2023/12/05 16:30:11;;;;;;;46.35;37.80;;;;;;;;;;10285313;28;20915;-67
2023/12/05 16:35:10;;;;;;;41.80;33.70;;;;;;;;;;10284026;28;20171;-67
2023/12/05 16:40:10;;;;;;;40.72;34.13;;;;;;;;;;10285617;28;20139;-67
2023/12/05 16:45:10;;;;;;;36.85;31.05;;;;;;;;;;10299056;28;20123;-67
2023/12/05 16:50:10;;;;;;;67.68;43.80;;;;;;;;;;10300001;28;20131;-66
2023/12/05 16:55:10;;;;;;;43.08;30.83;;;;;;;;;;10274570;28;20824;-68
2023/12/05 17:00:08;;;;;;;37.92;30.35;;;;;;;;;;10290927;28;20131;-68
2023/12/05 17:05:07;;;;;;;36.70;30.77;;;;;;;;;;10286800;28;20731;-70
2023/12/05 17:10:06;;;;;;;39.17;31.83;;;;;;;;;;10290778;28;20127;-67
2023/12/05 17:15:08;;;;;;;39.28;30.98;;;;;;;;;;10291868;28;20143;-66
2023/12/05 17:20:08;;;;;;;39.17;31.27;;;;;;;;;;10303755;28;20131;-68
2023/12/05 17:25:07;;;;;;;47.45;33.08;;;;;;;;;;10326616;28;20330;-68
2023/12/05 17:30:09;;;;;;;45.65;36.47;;;;;;;;;;10329258;28;20087;-67
2023/12/05 17:35:10;;;;;;;55.47;43.25;;;;;;;;;;10328786;28;20082;-68
2023/12/05 17:40:09;;;;;;;46.55;35.17;;;;;;;;;;10332795;28;20076;-66
2023/12/05 17:45:09;;;;;;;49.45;37.83;;;;;;;;;;10314271;28;20068;-67
2023/12/05 17:50:09;;;;;;;54.13;41.20;;;;;;;;;;10281873;28;20154;-67
2023/12/05 17:55:08;;;;;;;76.25;53.03;;;;;;;;;;10297055;28;20139;-67
2023/12/05 18:00:07;;;;;;;50.05;37.65;;;;;;;;;;10300553;28;20127;-64
2023/12/05 18:05:13;;;;;;;48.92;35.83;;;;;;;;;;10296453;28;21271;-67
2023/12/05 18:10:13;;;;;;;48.50;33.85;;;;;;;;;;10294032;28;20490;-66
2023/12/05 18:15:11;;;;;;;62.80;44.05;;;;;;;;;;10295912;28;20144;-67
2023/12/05 18:20:10;;;;;;;42.00;31.00;;;;;;;;;;10299255;28;20123;-67
2023/12/05 18:25:09;;;;;;;48.95;38.00;;;;;;;;;;10303774;28;20127;-68
2023/12/05 18:30:08;;;;;;;44.88;34.50;;;;;;;;;;10307432;28;20087;-67
2023/12/05 18:35:07;;;;;;;58.47;45.67;;;;;;;;;;10324376;28;20477;-67
2023/12/05 18:40:07;;;;;;;42.25;32.10;;;;;;;;;;10333930;28;20088;-67
2023/12/05 18:45:08;;;;;;;62.95;42.40;;;;;;;;;;10326515;28;20072;-68
2023/12/05 18:50:06;;;;;;;48.83;36.50;;;;;;;;;;10328502;28;20071;-67
2023/12/05 18:55:05;;;;;;;55.35;40.10;;;;;;;;;;10307177;28;20147;-67
2023/12/05 19:00:05;;;;;;;49.20;36.35;;;;;;;;;;10292836;28;20485;-67
2023/12/05 19:05:06;;;;;;;53.47;38.90;;;;;;;;;;10290861;28;20123;-67
2023/12/05 19:10:05;;;;;;;53.40;37.67;;;;;;;;;;10290270;28;20690;-66
2023/12/05 19:15:03;;;;;;;53.55;38.13;;;;;;;;;;10292176;28;20121;-67
2023/12/05 19:20:02;;;;;;;46.65;32.95;;;;;;;;;;10289469;28;20724;-67
2023/12/05 19:25:03;;;;;;;56.58;37.90;;;;;;;;;;10288423;28;20126;-66
2023/12/05 19:30:02;;;;;;;43.85;32.53;;;;;;;;;;10289677;28;20055;-66
2023/12/05 19:35:06;;;;;;;54.67;36.50;;;;;;;;;;10290347;28;20050;-67
2023/12/05 19:40:07;;;;;;;50.28;35.08;;;;;;;;;;10289899;28;20109;-67
2023/12/05 19:45:06;;;;;;;53.50;36.40;;;;;;;;;;10289660;28;20139;-68
2023/12/05 19:50:05;;;;;;;61.40;40.45;;;;;;;;;;10269939;28;20042;-66
2023/12/05 19:55:03;;;;;;;57.08;40.35;;;;;;;;;;10290431;28;20821;-69
2023/12/05 20:00:04;;;;;;;60.38;40.60;;;;;;;;;;10310848;28;20179;-68
2023/12/05 20:05:03;;;;;;;64.75;40.47;;;;;;;;;;10299246;28;20139;-66
2023/12/05 20:10:02;;;;;;;60.00;36.50;;;;;;;;;;10288139;28;20188;-66
2023/12/05 20:15:00;;;;;;;50.40;37.70;;;;;;;;;;10296193;28;20135;-67
2023/12/05 20:20:00;;;;;;;62.13;42.10;;;;;;;;;;10300701;28;20131;-67
2023/12/05 20:24:58;;;;;;;57.17;40.50;;;;;;;;;;10311985;28;20139;-68
2023/12/05 20:29:56;;;;;;;44.90;30.67;;;;;;;;;;10294553;28;20128;-67
2023/12/05 20:34:55;;;;;;;60.85;36.03;;;;;;;;;;10288245;28;20054;-68
2023/12/05 20:39:54;;;;;;;57.92;34.92;;;;;;;;;;10306355;28;20504;-69
2023/12/05 20:44:53;;;;;;;80.75;47.10;;;;;;;;;;10314284;28;20072;-68
2023/12/05 20:49:51;;;;;;;57.17;37.03;;;;;;;;;;10298479;28;20551;-68
2023/12/05 20:54:49;;;;;;;53.53;37.83;;;;;;;;;;10286485;28;20043;-68
2023/12/05 20:59:49;;;;;;;67.25;42.83;;;;;;;;;;10321423;28;20526;-66
2023/12/05 21:04:47;;;;;;;68.95;46.05;;;;;;;;;;10289711;28;20139;-67
2023/12/05 21:09:46;;;;;;;60.42;39.67;;;;;;;;;;10287683;28;20139;-68
2023/12/05 21:14:45;;;;;;;83.15;48.08;;;;;;;;;;10285944;28;20123;-68
2023/12/05 21:19:44;;;;;;;106.35;54.92;;;;;;;;;;10302736;28;20477;-66
2023/12/05 21:24:43;;;;;;;62.65;39.05;;;;;;;;;;10301956;28;20119;-66
2023/12/05 21:29:41;;;;;;;62.13;34.30;;;;;;;;;;10293007;28;20118;-66
2023/12/05 21:34:40;;;;;;;65.10;36.38;;;;;;;;;;10292608;28;20048;-68
2023/12/05 21:39:40;;;;;;;60.20;36.42;;;;;;;;;;10294197;28;20062;-66
2023/12/05 21:44:41;;;;;;;69.10;37.67;;;;;;;;;;10317972;28;20991;-67
2023/12/05 21:49:40;;;;;;;61.47;37.15;;;;;;;;;;10330681;28;20068;-67
2023/12/05 21:54:40;;;;;;;68.15;38.67;;;;;;;;;;10329523;28;20693;-68
2023/12/05 21:59:38;;;;;;;64.75;41.17;;;;;;;;;;10323506;28;20505;-67
2023/12/05 22:04:36;;;;;;;64.93;37.42;;;;;;;;;;10331031;28;20111;-66
2023/12/05 22:09:35;;;;;;;67.82;39.50;;;;;;;;;;10332810;28;20083;-67
2023/12/05 22:14:34;;;;;;;73.97;40.70;;;;;;;;;;10327531;28;20068;-66
2023/12/05 22:19:32;;;;;;;70.97;36.25;;;;;;;;;;10331487;28;20457;-67
2023/12/05 22:24:31;;;;;;;66.68;38.53;;;;;;;;;;10331904;28;20068;-67
2023/12/05 22:29:30;;;;;;;70.65;38.45;;;;;;;;;;10336051;28;20097;-66
2023/12/05 22:34:30;;;;;;;76.28;40.60;;;;;;;;;;10326555;28;20080;-67
2023/12/05 22:39:28;;;;;;;84.28;42.00;;;;;;;;;;10330956;28;20072;-66
2023/12/05 22:44:26;;;;;;;83.28;45.75;;;;;;;;;;10330638;28;20072;-67
2023/12/05 22:49:25;;;;;;;89.00;47.42;;;;;;;;;;10330096;28;20066;-66
2023/12/05 22:54:25;;;;;;;73.93;40.00;;;;;;;;;;10329865;28;20068;-67
2023/12/05 22:59:23;;;;;;;72.68;38.25;;;;;;;;;;10329026;28;20079;-66
2023/12/05 23:04:21;;;;;;;89.00;44.90;;;;;;;;;;10330295;28;20068;-66
2023/12/05 23:09:20;;;;;;;103.32;55.53;;;;;;;;;;10330522;28;20102;-66
2023/12/05 23:14:20;;;;;;;88.95;46.35;;;;;;;;;;10329162;28;20072;-66
2023/12/05 23:19:18;;;;;;;69.05;36.42;;;;;;;;;;10326980;28;20819;-67
2023/12/05 23:24:17;;;;;;;120.78;57.00;;;;;;;;;;10331106;28;20516;-67
2023/12/05 23:29:16;;;;;;;62.85;32.13;;;;;;;;;;10319119;28;20047;-66
2023/12/05 23:34:15;;;;;;;66.82;33.78;;;;;;;;;;10327615;28;20075;-68
2023/12/05 23:39:14;;;;;;;93.88;42.30;;;;;;;;;;10329897;28;20474;-66
2023/12/05 23:44:13;;;;;;;121.25;49.88;;;;;;;;;;10311328;28;20067;-68
2023/12/05 23:49:12;;;;;;;85.60;46.38;;;;;;;;;;10311118;28;20076;-66
2023/12/05 23:54:11;;;;;;;84.60;43.42;;;;;;;;;;10328282;28;20072;-66
2023/12/05 23:59:10;;;;;;;81.00;41.40;;;;;;;;;;10310626;28;20090;-66
